Detroit Metropolitan Wayne County Airport
KDTW : rendu visible

Aérodrome :











RETROUVEZ-NOUS SUR...

 
LOGIN :

S'inscrire | Disclaimer

   EN    FR    IT 

 









Légende :    VFR   VFR Marginal   IFR   IFR Intensif   IFR Très Intensif
Visi : 
Plafond : 
>= 8 km
>= 3000ft
5 à 8 km
1000 à 3000 ft
1500m à 5 km
500 à 1000 ft
800 à 1500m
200 à 500 ft
< 800m
< 200 ft
Symboles :   Orages  Brouillard  Fortes neiges  Fortes précipitations  Vent > 20 kt






- Altitude de l'aérodrome : 645 ft
- Code IATA : DTW


KDTW - Detroit Metropolitan Wayne County

DERNIER METAR :
  • 031753Z 24011KT 10SM -RA BKN040 BKN080 BKN240 25/18 A2995 RMK AO2 RAB26 SLP137 T02500178 10261 20200 58009 $

METARs EXPIRÉS :
  • 031653Z 24008KT 10SM SCT035 SCT090 BKN240 26/17 A2996 RMK AO2 SLP142 T02610167 $
  • 031553Z 22008KT 10SM SCT025 SCT080 BKN230 25/18 A2997 RMK AO2 SLP144 T02500178 $

TAF KDTW
Valide du 03 à 18h jusqu'au 05 à 00h UTC


031727Z 0318/0424 25007KT P6SM BKN035
TEMPO 0318/0322 3SM TSRA OVC030CB
FM032300 01010KT P6SM SCT035
FM040400 35006KT P6SM BKN025
FM041800 32008KT P6SM BKN050
FIR KZOB / Amérique du Nord



MET'MAP, la Météo Aéronautique d'un coup d'oeil ! - Copyright ORBIFLY Décembre 2007 - Disclaimer

ORBIFLY MET'MAP TEAM :

Programmation & Développement : Alexandra Zaïnal
Sur une idée originale de : Baudouin d'Aumeries
Assistance à la programmation : Marc-Olivier Méhu
Soutien technique & logistique : Manuel Goepfert

Contact : metmap@orbifly.com




SOURCES & CREDITS :

   NOAA       Earth
Advisory